VIR358 EGLL-VABB
Flight info
| Callsign | VIR358 |
|---|---|
| Flight time | N/A |
| Altitude | 39000 |
| Route | DET L6 DVR UL9 KONAN UL607 FERDI DCT REMBA DCT MATUG DCT GUBAX DCT BARSU DCT MOOCE DCT RUDNO DCT DEXIT DCT BEGLA DCT BALUX DCT IRLOX DCT OPT DCT LUGEB DCT UDROS DCT CRM UM11 REBLO P130 MAMED B449 DOLOS B475 NINOP A909 LEMOD N644 REGET G325 ZB G202 RK P628 VIKIT Z8 AAE R458 BOFIN POKON2A |
| Aircraft | A35K/H-SDE2E3GHIJ3J4J5LM1ORWXY/LB1D1 |
Departure
| Time | N/A |
|---|---|
| Airport | London Heathrow Airport (EGLL) |
Arrival
| Time | 2026-05-06 17:43 |
|---|---|
| Airport | Chhatrapati Shivaji Maharaj International Airport (VABB) |
| Time | Latitude | Longitude | Altitude | Speed | Heading |
|---|---|---|---|---|---|
| 2026-05-06 14:58 | 37.05344 | 62.83303 | 36791 ft | 529 kts | 134° |
| 2026-05-06 14:59 | 37.00918 | 62.90649 | 36800 ft | 528 kts | 134° |
| 2026-05-06 14:59 | 36.96488 | 62.97986 | 36815 ft | 530 kts | 134° |
| 2026-05-06 15:00 | 36.92040 | 63.05334 | 36824 ft | 530 kts | 134° |
| 2026-05-06 15:00 | 36.87609 | 63.12640 | 36831 ft | 530 kts | 134° |
| 2026-05-06 15:01 | 36.83150 | 63.19974 | 36835 ft | 530 kts | 134° |
| 2026-05-06 15:01 | 36.78695 | 63.27295 | 36850 ft | 530 kts | 134° |
| 2026-05-06 15:02 | 36.74223 | 63.34619 | 36851 ft | 530 kts | 134° |
| 2026-05-06 15:02 | 36.69747 | 63.41935 | 36857 ft | 530 kts | 134° |
| 2026-05-06 15:03 | 36.65262 | 63.49247 | 36859 ft | 531 kts | 134° |
| 2026-05-06 15:03 | 36.60775 | 63.56547 | 36867 ft | 531 kts | 134° |
| 2026-05-06 15:04 | 36.56277 | 63.63851 | 36880 ft | 531 kts | 134° |
| 2026-05-06 15:04 | 36.51809 | 63.71092 | 36872 ft | 531 kts | 134° |
| 2026-05-06 15:05 | 36.47292 | 63.78396 | 36891 ft | 532 kts | 134° |
| 2026-05-06 15:05 | 36.42773 | 63.85688 | 36888 ft | 532 kts | 134° |
| 2026-05-06 15:06 | 36.38253 | 63.92965 | 36892 ft | 532 kts | 134° |
| 2026-05-06 15:06 | 36.33756 | 64.00194 | 36894 ft | 533 kts | 134° |
| 2026-05-06 15:07 | 36.29208 | 64.07483 | 36895 ft | 534 kts | 134° |
| 2026-05-06 15:07 | 36.25426 | 64.13531 | 36895 ft | 533 kts | 134° |
| 2026-05-06 15:08 | 36.20853 | 64.20834 | 36883 ft | 533 kts | 134° |
| 2026-05-06 15:08 | 36.16332 | 64.28041 | 36894 ft | 534 kts | 134° |
| 2026-05-06 15:09 | 36.11843 | 64.35402 | 36902 ft | 536 kts | 132° |
| 2026-05-06 15:09 | 36.07473 | 64.42845 | 36915 ft | 534 kts | 131° |
| 2026-05-06 15:10 | 36.03099 | 64.50272 | 36911 ft | 533 kts | 132° |
| 2026-05-06 15:10 | 35.98738 | 64.57609 | 36933 ft | 533 kts | 132° |
| 2026-05-06 15:11 | 35.94336 | 64.64973 | 36939 ft | 533 kts | 132° |
| 2026-05-06 15:11 | 35.89921 | 64.72340 | 36936 ft | 533 kts | 132° |
| 2026-05-06 15:12 | 35.85494 | 64.79712 | 36965 ft | 534 kts | 132° |
| 2026-05-06 15:12 | 35.81085 | 64.87041 | 36998 ft | 535 kts | 133° |
| 2026-05-06 15:13 | 35.76641 | 64.94409 | 36999 ft | 535 kts | 132° |
| 2026-05-06 15:13 | 35.72193 | 65.01773 | 37028 ft | 535 kts | 132° |
| 2026-05-06 15:14 | 35.67738 | 65.09133 | 37054 ft | 536 kts | 133° |
| 2026-05-06 15:14 | 35.63303 | 65.16440 | 37056 ft | 536 kts | 133° |
| 2026-05-06 15:15 | 35.58834 | 65.23789 | 37086 ft | 537 kts | 133° |
| 2026-05-06 15:15 | 35.54361 | 65.31126 | 37105 ft | 537 kts | 132° |
| 2026-05-06 15:16 | 35.49875 | 65.38475 | 37106 ft | 537 kts | 132° |
| 2026-05-06 15:16 | 35.45379 | 65.45823 | 37123 ft | 537 kts | 133° |
| 2026-05-06 15:17 | 35.40919 | 65.53096 | 37142 ft | 537 kts | 133° |
| 2026-05-06 15:17 | 35.36421 | 65.60417 | 37141 ft | 538 kts | 133° |
| 2026-05-06 15:18 | 35.31907 | 65.67754 | 37158 ft | 539 kts | 133° |
| 2026-05-06 15:18 | 35.27399 | 65.75072 | 37170 ft | 538 kts | 133° |
| 2026-05-06 15:19 | 35.22874 | 65.82385 | 37171 ft | 538 kts | 133° |
| 2026-05-06 15:19 | 35.18372 | 65.89643 | 37174 ft | 539 kts | 133° |
| 2026-05-06 15:20 | 35.13831 | 65.96947 | 37176 ft | 539 kts | 133° |
| 2026-05-06 15:20 | 35.09297 | 66.04234 | 37178 ft | 538 kts | 133° |
| 2026-05-06 15:21 | 35.04761 | 66.11510 | 37178 ft | 538 kts | 133° |
| 2026-05-06 15:21 | 35.00229 | 66.18768 | 37179 ft | 539 kts | 133° |
| 2026-05-06 15:22 | 34.95675 | 66.26043 | 37182 ft | 540 kts | 133° |
| 2026-05-06 15:22 | 34.91049 | 66.33238 | 37110 ft | 539 kts | 136° |
| 2026-05-06 15:23 | 34.86331 | 66.40334 | 37230 ft | 538 kts | 136° |
| 2026-05-06 15:23 | 34.81703 | 66.47451 | 37299 ft | 541 kts | 135° |
| 2026-05-06 15:23 | 34.79383 | 66.51075 | 37416 ft | 540 kts | 135° |
| 2026-05-06 15:24 | 34.77094 | 66.54678 | 37596 ft | 537 kts | 135° |
| 2026-05-06 15:24 | 34.74824 | 66.58262 | 37850 ft | 533 kts | 135° |
| 2026-05-06 15:24 | 34.72566 | 66.61830 | 38050 ft | 530 kts | 135° |
| 2026-05-06 15:24 | 34.70323 | 66.65374 | 38270 ft | 527 kts | 135° |
| 2026-05-06 15:25 | 34.68096 | 66.68888 | 38502 ft | 524 kts | 135° |
| 2026-05-06 15:25 | 34.65876 | 66.72390 | 38697 ft | 521 kts | 134° |
| 2026-05-06 15:25 | 34.63680 | 66.75864 | 38910 ft | 517 kts | 135° |
| 2026-05-06 15:25 | 34.61498 | 66.79313 | 39085 ft | 514 kts | 135° |
| 2026-05-06 15:26 | 34.59320 | 66.82740 | 39147 ft | 513 kts | 135° |
| 2026-05-06 15:26 | 34.54974 | 66.89531 | 39166 ft | 513 kts | 135° |
| 2026-05-06 15:27 | 34.50564 | 66.96354 | 39157 ft | 514 kts | 135° |
| 2026-05-06 15:27 | 34.46158 | 67.03151 | 39144 ft | 515 kts | 136° |
| 2026-05-06 15:28 | 34.41689 | 67.10025 | 39138 ft | 517 kts | 136° |
| 2026-05-06 15:28 | 34.37659 | 67.16210 | 39145 ft | 519 kts | 136° |
| 2026-05-06 15:29 | 34.33173 | 67.23082 | 39146 ft | 521 kts | 135° |
| 2026-05-06 15:29 | 34.28642 | 67.29884 | 39143 ft | 520 kts | 138° |
| 2026-05-06 15:30 | 34.24068 | 67.36649 | 39137 ft | 519 kts | 138° |
| 2026-05-06 15:30 | 34.19547 | 67.43463 | 39132 ft | 519 kts | 137° |
| 2026-05-06 15:31 | 34.15056 | 67.50300 | 39140 ft | 518 kts | 137° |
| 2026-05-06 15:31 | 34.10617 | 67.57073 | 39138 ft | 516 kts | 137° |
| 2026-05-06 15:32 | 34.03909 | 67.67267 | 39134 ft | 516 kts | 137° |
| 2026-05-06 15:32 | 33.99431 | 67.74037 | 39125 ft | 516 kts | 137° |
| 2026-05-06 15:33 | 33.94956 | 67.80796 | 39114 ft | 515 kts | 137° |
| 2026-05-06 15:33 | 33.90447 | 67.87500 | 39109 ft | 514 kts | 138° |
| 2026-05-06 15:34 | 33.85963 | 67.94139 | 39077 ft | 513 kts | 138° |
| 2026-05-06 15:34 | 33.81450 | 68.00816 | 39073 ft | 513 kts | 138° |
| 2026-05-06 15:35 | 33.76947 | 68.07475 | 39072 ft | 512 kts | 138° |
| 2026-05-06 15:35 | 33.72480 | 68.14080 | 39059 ft | 511 kts | 138° |
| 2026-05-06 15:36 | 33.68000 | 68.20700 | 39047 ft | 510 kts | 138° |
| 2026-05-06 15:36 | 33.63507 | 68.27305 | 39014 ft | 510 kts | 138° |
| 2026-05-06 15:37 | 33.59024 | 68.33877 | 38964 ft | 508 kts | 138° |
| 2026-05-06 15:37 | 33.54548 | 68.40433 | 38953 ft | 507 kts | 138° |
| 2026-05-06 15:38 | 33.50049 | 68.46921 | 38930 ft | 505 kts | 139° |
| 2026-05-06 15:38 | 33.45499 | 68.53272 | 38935 ft | 504 kts | 140° |
| 2026-05-06 15:39 | 33.40927 | 68.59634 | 38911 ft | 503 kts | 140° |
| 2026-05-06 15:39 | 33.36372 | 68.65992 | 38912 ft | 502 kts | 139° |
| 2026-05-06 15:40 | 33.31837 | 68.72332 | 38903 ft | 501 kts | 139° |
| 2026-05-06 15:40 | 33.27315 | 68.78653 | 38901 ft | 499 kts | 139° |
| 2026-05-06 15:41 | 33.22981 | 68.85054 | 38907 ft | 498 kts | 136° |
| 2026-05-06 15:41 | 33.18817 | 68.91675 | 38911 ft | 497 kts | 135° |
| 2026-05-06 15:42 | 33.14647 | 68.98267 | 38892 ft | 496 kts | 136° |
| 2026-05-06 15:42 | 33.10488 | 69.04760 | 38913 ft | 494 kts | 136° |
| 2026-05-06 15:43 | 33.06304 | 69.11249 | 38908 ft | 493 kts | 136° |
| 2026-05-06 15:43 | 33.01808 | 69.17314 | 38972 ft | 484 kts | 153° |
| 2026-05-06 15:44 | 32.98989 | 69.19456 | 38931 ft | 478 kts | 166° |
| 2026-05-06 15:44 | 32.95921 | 69.20883 | 38917 ft | 469 kts | 178° |
| 2026-05-06 15:44 | 32.89571 | 69.22214 | 38898 ft | 459 kts | 188° |
| 2026-05-06 15:45 | 32.83248 | 69.23022 | 38901 ft | 455 kts | 188° |
| 2026-05-06 15:45 | 32.76973 | 69.23860 | 38903 ft | 452 kts | 188° |
| 2026-05-06 15:46 | 32.70747 | 69.24784 | 38903 ft | 449 kts | 187° |
| 2026-05-06 15:46 | 32.64578 | 69.25742 | 38896 ft | 445 kts | 187° |
| 2026-05-06 15:47 | 32.58458 | 69.26695 | 38906 ft | 442 kts | 187° |
| 2026-05-06 15:47 | 32.52419 | 69.27625 | 38901 ft | 438 kts | 187° |
| 2026-05-06 15:48 | 32.46398 | 69.28548 | 38901 ft | 435 kts | 187° |
| 2026-05-06 15:48 | 32.40429 | 69.29468 | 38895 ft | 429 kts | 187° |
| 2026-05-06 15:49 | 32.34549 | 69.30386 | 38879 ft | 422 kts | 188° |
| 2026-05-06 15:49 | 32.28773 | 69.31285 | 38877 ft | 415 kts | 188° |
| 2026-05-06 15:50 | 32.23111 | 69.32169 | 38870 ft | 406 kts | 188° |
| 2026-05-06 15:50 | 32.17565 | 69.32920 | 38688 ft | 402 kts | 185° |
| 2026-05-06 15:51 | 32.14662 | 69.33222 | 37688 ft | 437 kts | 177° |
| 2026-05-06 15:51 | 32.11615 | 69.33875 | 37056 ft | 462 kts | 173° |
| 2026-05-06 15:51 | 32.08426 | 69.34664 | 36855 ft | 472 kts | 173° |
| 2026-05-06 15:51 | 32.05177 | 69.35418 | 36846 ft | 478 kts | 174° |
| 2026-05-06 15:52 | 31.98515 | 69.36684 | 36850 ft | 491 kts | 177° |
| 2026-05-06 15:52 | 31.91684 | 69.37738 | 36841 ft | 504 kts | 178° |
| 2026-05-06 15:53 | 31.84622 | 69.38759 | 36839 ft | 519 kts | 178° |
| 2026-05-06 15:53 | 31.77344 | 69.39818 | 36831 ft | 533 kts | 178° |
| 2026-05-06 15:54 | 31.69922 | 69.40913 | 36815 ft | 543 kts | 178° |
| 2026-05-06 15:54 | 31.62425 | 69.42030 | 36830 ft | 543 kts | 178° |
| 2026-05-06 15:55 | 31.54912 | 69.43144 | 36842 ft | 543 kts | 178° |
| 2026-05-06 15:55 | 31.47412 | 69.44251 | 36833 ft | 543 kts | 178° |
| 2026-05-06 15:56 | 31.39890 | 69.45356 | 36839 ft | 544 kts | 178° |
| 2026-05-06 15:56 | 31.32362 | 69.46528 | 36842 ft | 547 kts | 175° |
| 2026-05-06 15:57 | 31.24950 | 69.48371 | 36845 ft | 549 kts | 171° |
| 2026-05-06 15:57 | 31.17517 | 69.50409 | 36832 ft | 548 kts | 172° |
| 2026-05-06 15:58 | 31.10081 | 69.52349 | 36848 ft | 548 kts | 173° |
| 2026-05-06 15:58 | 31.02658 | 69.54208 | 36862 ft | 550 kts | 173° |
| 2026-05-06 15:59 | 30.95085 | 69.56075 | 36829 ft | 561 kts | 173° |
| 2026-05-06 15:59 | 30.87455 | 69.57962 | 36854 ft | 560 kts | 173° |
| 2026-05-06 16:00 | 30.81113 | 69.59533 | 36856 ft | 559 kts | 173° |
| 2026-05-06 16:00 | 30.73494 | 69.61417 | 36846 ft | 559 kts | 173° |
| 2026-05-06 16:01 | 30.65866 | 69.63300 | 36836 ft | 559 kts | 173° |
| 2026-05-06 16:01 | 30.58302 | 69.65162 | 36827 ft | 558 kts | 173° |
| 2026-05-06 16:02 | 30.50699 | 69.67031 | 36835 ft | 558 kts | 173° |
| 2026-05-06 16:02 | 30.43089 | 69.68899 | 36822 ft | 558 kts | 173° |
| 2026-05-06 16:03 | 30.35466 | 69.70767 | 36836 ft | 559 kts | 173° |
| 2026-05-06 16:03 | 30.27886 | 69.72622 | 36833 ft | 560 kts | 173° |
| 2026-05-06 16:04 | 30.20264 | 69.74565 | 36830 ft | 561 kts | 171° |
| 2026-05-06 16:04 | 30.12683 | 69.76813 | 36820 ft | 563 kts | 170° |
| 2026-05-06 16:05 | 30.05093 | 69.79104 | 36823 ft | 563 kts | 170° |
| 2026-05-06 16:05 | 29.97539 | 69.81332 | 36815 ft | 563 kts | 170° |
| 2026-05-06 16:06 | 29.89942 | 69.83540 | 36797 ft | 563 kts | 171° |
| 2026-05-06 16:06 | 29.82328 | 69.85742 | 36783 ft | 563 kts | 171° |
| 2026-05-06 16:07 | 29.74718 | 69.87942 | 36785 ft | 563 kts | 171° |
| 2026-05-06 16:07 | 29.67123 | 69.90137 | 36767 ft | 563 kts | 171° |
| 2026-05-06 16:08 | 29.59532 | 69.92328 | 36752 ft | 562 kts | 171° |
| 2026-05-06 16:08 | 29.51998 | 69.94501 | 36741 ft | 561 kts | 171° |
| 2026-05-06 16:09 | 29.44408 | 69.96681 | 36743 ft | 561 kts | 171° |
| 2026-05-06 16:09 | 29.36809 | 69.98861 | 36725 ft | 563 kts | 171° |
| 2026-05-06 16:10 | 29.29242 | 70.01029 | 36714 ft | 564 kts | 171° |
| 2026-05-06 16:10 | 29.21626 | 70.03210 | 36714 ft | 564 kts | 171° |
| 2026-05-06 16:11 | 29.14009 | 70.05387 | 36697 ft | 564 kts | 171° |
| 2026-05-06 16:11 | 29.06428 | 70.07550 | 36691 ft | 565 kts | 171° |
| 2026-05-06 16:12 | 28.98791 | 70.09726 | 36689 ft | 565 kts | 171° |
| 2026-05-06 16:12 | 28.91156 | 70.11898 | 36688 ft | 565 kts | 171° |
| 2026-05-06 16:13 | 28.83513 | 70.14070 | 36681 ft | 565 kts | 171° |
| 2026-05-06 16:13 | 28.75886 | 70.16234 | 36683 ft | 565 kts | 171° |
| 2026-05-06 16:14 | 28.68257 | 70.18395 | 36683 ft | 564 kts | 171° |
| 2026-05-06 16:14 | 28.60637 | 70.20550 | 36690 ft | 564 kts | 171° |
| 2026-05-06 16:15 | 28.53069 | 70.22687 | 36689 ft | 564 kts | 171° |
| 2026-05-06 16:15 | 28.45447 | 70.24901 | 36686 ft | 567 kts | 167° |
| 2026-05-06 16:16 | 28.41767 | 70.26575 | 36693 ft | 573 kts | 156° |
| 2026-05-06 16:16 | 28.38363 | 70.28971 | 36689 ft | 578 kts | 144° |
| 2026-05-06 16:16 | 28.35414 | 70.32081 | 36670 ft | 580 kts | 131° |
| 2026-05-06 16:16 | 28.33067 | 70.35802 | 36689 ft | 580 kts | 118° |
| 2026-05-06 16:17 | 28.29384 | 70.43899 | 36683 ft | 581 kts | 114° |
| 2026-05-06 16:17 | 28.25947 | 70.52209 | 36698 ft | 581 kts | 114° |
| 2026-05-06 16:18 | 28.22494 | 70.60501 | 36694 ft | 581 kts | 114° |
| 2026-05-06 16:18 | 28.18984 | 70.68753 | 36697 ft | 581 kts | 115° |
| 2026-05-06 16:19 | 28.15442 | 70.76993 | 36699 ft | 581 kts | 115° |
| 2026-05-06 16:19 | 28.11916 | 70.85175 | 36701 ft | 581 kts | 115° |
| 2026-05-06 16:20 | 28.08363 | 70.93412 | 36695 ft | 580 kts | 115° |
| 2026-05-06 16:20 | 28.04821 | 71.01613 | 36696 ft | 579 kts | 115° |
| 2026-05-06 16:21 | 28.01292 | 71.09769 | 36701 ft | 579 kts | 115° |
| 2026-05-06 16:21 | 27.97744 | 71.17950 | 36701 ft | 579 kts | 115° |
| 2026-05-06 16:22 | 27.94186 | 71.26138 | 36700 ft | 579 kts | 115° |
| 2026-05-06 16:22 | 27.90619 | 71.34331 | 36707 ft | 580 kts | 115° |
| 2026-05-06 16:23 | 27.87049 | 71.42514 | 36704 ft | 580 kts | 115° |
| 2026-05-06 16:23 | 27.83384 | 71.50584 | 36705 ft | 581 kts | 117° |
| 2026-05-06 16:24 | 27.79562 | 71.58618 | 36710 ft | 580 kts | 117° |
| 2026-05-06 16:24 | 27.75743 | 71.66653 | 36708 ft | 579 kts | 117° |
| 2026-05-06 16:25 | 27.71952 | 71.74686 | 36677 ft | 579 kts | 117° |
| 2026-05-06 16:25 | 27.67724 | 71.82410 | 36710 ft | 579 kts | 131° |
| 2026-05-06 16:26 | 27.64910 | 71.85642 | 36717 ft | 576 kts | 142° |
| 2026-05-06 16:26 | 27.61696 | 71.88188 | 36717 ft | 570 kts | 154° |
| 2026-05-06 16:26 | 27.58106 | 71.90015 | 36717 ft | 562 kts | 166° |
| 2026-05-06 16:26 | 27.54333 | 71.91042 | 36741 ft | 554 kts | 177° |
| 2026-05-06 16:27 | 27.46701 | 71.92081 | 36717 ft | 551 kts | 180° |
| 2026-05-06 16:27 | 27.39072 | 71.92865 | 36721 ft | 550 kts | 180° |
| 2026-05-06 16:28 | 27.31447 | 71.93675 | 36724 ft | 550 kts | 180° |
| 2026-05-06 16:28 | 27.23822 | 71.94535 | 36724 ft | 551 kts | 180° |
| 2026-05-06 16:29 | 27.16195 | 71.95415 | 36730 ft | 551 kts | 180° |
| 2026-05-06 16:29 | 27.08574 | 71.96295 | 36730 ft | 551 kts | 180° |
| 2026-05-06 16:30 | 27.02236 | 71.97023 | 36732 ft | 551 kts | 180° |
| 2026-05-06 16:30 | 26.93371 | 71.98040 | 36733 ft | 551 kts | 180° |
| 2026-05-06 16:31 | 26.85735 | 71.98913 | 36727 ft | 551 kts | 180° |
| 2026-05-06 16:31 | 26.78096 | 71.99786 | 36738 ft | 552 kts | 180° |
| 2026-05-06 16:32 | 26.70490 | 72.00654 | 36735 ft | 552 kts | 180° |
| 2026-05-06 16:32 | 26.62832 | 72.01527 | 36738 ft | 552 kts | 180° |
| 2026-05-06 16:33 | 26.55184 | 72.02398 | 36736 ft | 552 kts | 180° |
| 2026-05-06 16:34 | 26.43727 | 72.03700 | 36737 ft | 551 kts | 180° |
| 2026-05-06 16:34 | 26.36082 | 72.04567 | 36738 ft | 551 kts | 180° |
| 2026-05-06 16:35 | 26.28498 | 72.05426 | 36733 ft | 552 kts | 180° |
| 2026-05-06 16:35 | 26.20857 | 72.06291 | 36742 ft | 551 kts | 180° |
| 2026-05-06 16:36 | 26.13215 | 72.07155 | 36742 ft | 551 kts | 180° |
| 2026-05-06 16:36 | 26.05584 | 72.08016 | 36736 ft | 551 kts | 180° |
| 2026-05-06 16:37 | 25.97935 | 72.08878 | 36741 ft | 552 kts | 180° |
| 2026-05-06 16:37 | 25.90333 | 72.09734 | 36741 ft | 552 kts | 180° |
| 2026-05-06 16:38 | 25.82685 | 72.10593 | 36744 ft | 552 kts | 180° |
| 2026-05-06 16:38 | 25.75034 | 72.11453 | 36743 ft | 552 kts | 180° |
| 2026-05-06 16:39 | 25.67390 | 72.12311 | 36745 ft | 552 kts | 180° |
| 2026-05-06 16:39 | 25.59752 | 72.13186 | 36752 ft | 551 kts | 180° |
| 2026-05-06 16:40 | 25.52105 | 72.14062 | 36750 ft | 551 kts | 180° |
| 2026-05-06 16:40 | 25.44511 | 72.14931 | 36719 ft | 551 kts | 180° |
| 2026-05-06 16:41 | 25.36886 | 72.15803 | 36756 ft | 549 kts | 180° |
| 2026-05-06 16:41 | 25.29287 | 72.16670 | 36758 ft | 549 kts | 180° |
| 2026-05-06 16:42 | 25.21688 | 72.17535 | 36763 ft | 549 kts | 180° |
| 2026-05-06 16:42 | 25.14081 | 72.18399 | 36753 ft | 549 kts | 180° |
| 2026-05-06 16:43 | 25.06490 | 72.19262 | 36766 ft | 547 kts | 180° |
| 2026-05-06 16:43 | 24.98963 | 72.20288 | 36777 ft | 551 kts | 175° |
| 2026-05-06 16:44 | 24.91412 | 72.21871 | 36776 ft | 552 kts | 174° |
| 2026-05-06 16:44 | 24.83878 | 72.23551 | 36771 ft | 552 kts | 174° |
| 2026-05-06 16:45 | 24.76360 | 72.25241 | 36778 ft | 550 kts | 174° |
| 2026-05-06 16:45 | 24.68857 | 72.26926 | 36788 ft | 550 kts | 174° |
| 2026-05-06 16:46 | 24.61352 | 72.28599 | 36788 ft | 550 kts | 174° |
| 2026-05-06 16:46 | 24.53890 | 72.30260 | 36780 ft | 550 kts | 174° |
| 2026-05-06 16:47 | 24.46398 | 72.31928 | 36784 ft | 548 kts | 174° |
| 2026-05-06 16:47 | 24.38926 | 72.33589 | 36783 ft | 547 kts | 174° |
| 2026-05-06 16:48 | 24.31459 | 72.35246 | 36780 ft | 547 kts | 174° |
| 2026-05-06 16:48 | 24.24030 | 72.36894 | 36779 ft | 547 kts | 174° |
| 2026-05-06 16:49 | 24.16550 | 72.38550 | 36777 ft | 547 kts | 174° |
| 2026-05-06 16:49 | 24.09080 | 72.40203 | 36785 ft | 547 kts | 174° |
| 2026-05-06 16:50 | 24.01631 | 72.41849 | 36785 ft | 550 kts | 174° |
| 2026-05-06 16:50 | 23.94126 | 72.43524 | 36776 ft | 549 kts | 173° |
| 2026-05-06 16:51 | 23.86645 | 72.45196 | 36774 ft | 548 kts | 173° |
| 2026-05-06 16:51 | 23.79269 | 72.46846 | 36779 ft | 536 kts | 173° |
| 2026-05-06 16:52 | 23.71989 | 72.48467 | 36772 ft | 533 kts | 174° |
| 2026-05-06 16:52 | 23.64726 | 72.50077 | 36763 ft | 532 kts | 173° |
| 2026-05-06 16:53 | 23.58703 | 72.51413 | 36765 ft | 530 kts | 173° |
| 2026-05-06 16:53 | 23.50300 | 72.53277 | 36762 ft | 530 kts | 173° |
| 2026-05-06 16:54 | 23.43062 | 72.54880 | 36759 ft | 530 kts | 173° |
| 2026-05-06 16:54 | 23.37001 | 72.56221 | 36745 ft | 530 kts | 173° |
| 2026-05-06 16:55 | 23.29832 | 72.57808 | 36760 ft | 527 kts | 173° |
| 2026-05-06 16:55 | 23.22640 | 72.59396 | 36757 ft | 526 kts | 173° |
| 2026-05-06 16:56 | 23.15459 | 72.60980 | 36778 ft | 527 kts | 174° |
| 2026-05-06 16:56 | 23.08240 | 72.62091 | 36758 ft | 518 kts | 185° |
| 2026-05-06 16:57 | 23.01298 | 72.61014 | 36774 ft | 502 kts | 201° |
| 2026-05-06 16:57 | 22.94608 | 72.58874 | 36769 ft | 499 kts | 203° |
| 2026-05-06 16:58 | 22.87986 | 72.56587 | 36769 ft | 499 kts | 204° |
| 2026-05-06 16:58 | 22.81397 | 72.54332 | 36764 ft | 499 kts | 203° |
| 2026-05-06 16:59 | 22.74758 | 72.52095 | 36757 ft | 499 kts | 203° |
| 2026-05-06 16:59 | 22.68126 | 72.49877 | 36763 ft | 498 kts | 203° |
| 2026-05-06 17:00 | 22.61497 | 72.47664 | 36766 ft | 498 kts | 203° |
| 2026-05-06 17:00 | 22.54866 | 72.45450 | 36771 ft | 498 kts | 203° |
| 2026-05-06 17:01 | 22.48237 | 72.43238 | 36773 ft | 498 kts | 203° |
| 2026-05-06 17:01 | 22.41635 | 72.41037 | 36774 ft | 498 kts | 202° |
| 2026-05-06 17:02 | 22.35009 | 72.38831 | 36778 ft | 498 kts | 202° |
| 2026-05-06 17:02 | 22.28376 | 72.36624 | 36774 ft | 498 kts | 202° |
| 2026-05-06 17:03 | 22.21736 | 72.34418 | 36761 ft | 498 kts | 202° |
| 2026-05-06 17:03 | 22.15107 | 72.32217 | 36760 ft | 498 kts | 202° |
| 2026-05-06 17:04 | 22.08514 | 72.30030 | 36772 ft | 498 kts | 202° |
| 2026-05-06 17:04 | 22.01889 | 72.27836 | 36772 ft | 498 kts | 202° |
| 2026-05-06 17:05 | 21.95257 | 72.25640 | 36780 ft | 498 kts | 202° |
| 2026-05-06 17:05 | 21.88635 | 72.23450 | 36780 ft | 498 kts | 202° |
| 2026-05-06 17:06 | 21.82008 | 72.21261 | 36781 ft | 497 kts | 202° |
| 2026-05-06 17:06 | 21.75208 | 72.19871 | 36780 ft | 507 kts | 186° |
| 2026-05-06 17:07 | 21.68146 | 72.20700 | 36784 ft | 515 kts | 172° |
| 2026-05-06 17:07 | 21.61150 | 72.22473 | 36785 ft | 517 kts | 169° |
| 2026-05-06 17:08 | 21.54156 | 72.24375 | 36786 ft | 517 kts | 169° |
| 2026-05-06 17:08 | 21.47161 | 72.26245 | 36781 ft | 517 kts | 170° |
| 2026-05-06 17:09 | 21.40207 | 72.28065 | 36782 ft | 517 kts | 170° |
| 2026-05-06 17:09 | 21.33198 | 72.29887 | 36782 ft | 517 kts | 170° |
| 2026-05-06 17:10 | 21.26207 | 72.31702 | 36785 ft | 517 kts | 170° |
| 2026-05-06 17:10 | 21.19209 | 72.33519 | 36785 ft | 517 kts | 170° |
| 2026-05-06 17:11 | 21.12219 | 72.35333 | 36786 ft | 517 kts | 170° |
| 2026-05-06 17:11 | 21.05226 | 72.37146 | 36788 ft | 517 kts | 170° |
| 2026-05-06 17:12 | 20.98234 | 72.38957 | 36785 ft | 517 kts | 170° |
| 2026-05-06 17:12 | 20.91241 | 72.40766 | 36783 ft | 517 kts | 170° |
| 2026-05-06 17:13 | 20.84287 | 72.42546 | 36785 ft | 516 kts | 170° |
| 2026-05-06 17:13 | 20.77296 | 72.44335 | 36788 ft | 515 kts | 170° |
| 2026-05-06 17:14 | 20.70279 | 72.45104 | 36796 ft | 502 kts | 192° |
| 2026-05-06 17:14 | 20.66937 | 72.44201 | 36800 ft | 493 kts | 204° |
| 2026-05-06 17:14 | 20.63731 | 72.42914 | 36633 ft | 491 kts | 205° |
| 2026-05-06 17:14 | 20.60548 | 72.41583 | 36383 ft | 493 kts | 205° |
| 2026-05-06 17:15 | 20.57343 | 72.40250 | 36141 ft | 495 kts | 205° |
| 2026-05-06 17:15 | 20.54160 | 72.38937 | 35884 ft | 497 kts | 205° |
| 2026-05-06 17:15 | 20.50905 | 72.37603 | 35471 ft | 493 kts | 204° |
| 2026-05-06 17:15 | 20.47741 | 72.36310 | 34881 ft | 491 kts | 204° |
| 2026-05-06 17:16 | 20.44541 | 72.35005 | 34200 ft | 492 kts | 204° |
| 2026-05-06 17:16 | 20.41335 | 72.33698 | 33436 ft | 494 kts | 204° |
| 2026-05-06 17:16 | 20.38117 | 72.32388 | 32657 ft | 495 kts | 204° |
| 2026-05-06 17:16 | 20.34895 | 72.31078 | 31893 ft | 496 kts | 204° |
| 2026-05-06 17:17 | 20.31668 | 72.29766 | 31120 ft | 497 kts | 205° |
| 2026-05-06 17:17 | 20.28425 | 72.28448 | 30324 ft | 499 kts | 205° |
| 2026-05-06 17:17 | 20.25170 | 72.27126 | 29441 ft | 502 kts | 205° |
| 2026-05-06 17:17 | 20.21908 | 72.25802 | 28771 ft | 499 kts | 205° |
| 2026-05-06 17:18 | 20.18679 | 72.24493 | 28139 ft | 494 kts | 204° |
| 2026-05-06 17:18 | 20.15473 | 72.23194 | 27540 ft | 490 kts | 204° |
| 2026-05-06 17:18 | 20.12336 | 72.21923 | 26947 ft | 486 kts | 204° |
| 2026-05-06 17:18 | 20.09179 | 72.20644 | 26353 ft | 483 kts | 205° |
| 2026-05-06 17:19 | 20.06049 | 72.19377 | 25769 ft | 479 kts | 205° |
| 2026-05-06 17:19 | 20.02933 | 72.18115 | 25178 ft | 476 kts | 205° |
| 2026-05-06 17:19 | 19.99847 | 72.16866 | 24604 ft | 473 kts | 205° |
| 2026-05-06 17:19 | 19.96797 | 72.15634 | 24344 ft | 462 kts | 205° |
| 2026-05-06 17:20 | 19.93874 | 72.14456 | 24214 ft | 447 kts | 205° |
| 2026-05-06 17:20 | 19.91001 | 72.13297 | 24039 ft | 435 kts | 205° |
| 2026-05-06 17:20 | 19.88210 | 72.12170 | 23841 ft | 423 kts | 206° |
| 2026-05-06 17:20 | 19.85495 | 72.11074 | 23674 ft | 412 kts | 205° |
| 2026-05-06 17:21 | 19.82852 | 72.10007 | 23483 ft | 401 kts | 206° |
| 2026-05-06 17:21 | 19.80245 | 72.09058 | 23297 ft | 394 kts | 198° |
| 2026-05-06 17:21 | 19.77525 | 72.08885 | 23083 ft | 394 kts | 176° |
| 2026-05-06 17:21 | 19.74906 | 72.09734 | 22656 ft | 398 kts | 154° |
| 2026-05-06 17:22 | 19.72690 | 72.11486 | 22180 ft | 398 kts | 137° |
| 2026-05-06 17:22 | 19.70707 | 72.13525 | 21764 ft | 395 kts | 136° |
| 2026-05-06 17:22 | 19.68743 | 72.15538 | 21370 ft | 391 kts | 137° |
| 2026-05-06 17:22 | 19.66768 | 72.17503 | 20982 ft | 387 kts | 138° |
| 2026-05-06 17:23 | 19.64819 | 72.19405 | 20604 ft | 383 kts | 139° |
| 2026-05-06 17:23 | 19.62853 | 72.21300 | 20220 ft | 379 kts | 139° |
| 2026-05-06 17:23 | 19.60900 | 72.23169 | 19844 ft | 375 kts | 139° |
| 2026-05-06 17:23 | 19.58969 | 72.25010 | 19473 ft | 371 kts | 139° |
| 2026-05-06 17:24 | 19.57054 | 72.26831 | 19119 ft | 368 kts | 139° |
| 2026-05-06 17:24 | 19.55157 | 72.28633 | 18773 ft | 363 kts | 139° |
| 2026-05-06 17:24 | 19.53304 | 72.30390 | 18275 ft | 352 kts | 139° |
| 2026-05-06 17:24 | 19.51510 | 72.32092 | 17812 ft | 340 kts | 139° |
| 2026-05-06 17:25 | 19.49778 | 72.33734 | 17434 ft | 327 kts | 139° |
| 2026-05-06 17:25 | 19.48132 | 72.35293 | 17098 ft | 317 kts | 139° |
| 2026-05-06 17:25 | 19.46476 | 72.36860 | 16754 ft | 320 kts | 139° |
| 2026-05-06 17:25 | 19.44816 | 72.38431 | 16409 ft | 319 kts | 139° |
| 2026-05-06 17:26 | 19.43168 | 72.39991 | 16068 ft | 317 kts | 139° |
| 2026-05-06 17:26 | 19.41525 | 72.41544 | 15723 ft | 316 kts | 138° |
| 2026-05-06 17:26 | 19.39889 | 72.43092 | 15381 ft | 314 kts | 138° |
| 2026-05-06 17:26 | 19.38260 | 72.44632 | 15047 ft | 313 kts | 138° |
| 2026-05-06 17:27 | 19.36639 | 72.46164 | 14688 ft | 311 kts | 138° |
| 2026-05-06 17:27 | 19.35027 | 72.47688 | 14351 ft | 310 kts | 138° |
| 2026-05-06 17:27 | 19.33421 | 72.49205 | 14015 ft | 309 kts | 138° |
| 2026-05-06 17:27 | 19.31821 | 72.50715 | 13671 ft | 307 kts | 137° |
| 2026-05-06 17:28 | 19.30258 | 72.52191 | 13298 ft | 304 kts | 137° |
| 2026-05-06 17:28 | 19.28687 | 72.53675 | 12979 ft | 300 kts | 137° |
| 2026-05-06 17:28 | 19.27161 | 72.55114 | 12830 ft | 288 kts | 138° |
| 2026-05-06 17:28 | 19.25696 | 72.56497 | 12681 ft | 278 kts | 138° |
| 2026-05-06 17:29 | 19.24261 | 72.57851 | 12379 ft | 276 kts | 138° |
| 2026-05-06 17:29 | 19.22852 | 72.59223 | 12054 ft | 274 kts | 133° |
| 2026-05-06 17:29 | 19.21828 | 72.60894 | 11749 ft | 271 kts | 109° |
| 2026-05-06 17:29 | 19.21544 | 72.62854 | 11720 ft | 274 kts | 93° |
| 2026-05-06 17:30 | 19.21518 | 72.64884 | 11697 ft | 277 kts | 91° |
| 2026-05-06 17:30 | 19.21523 | 72.66923 | 11680 ft | 277 kts | 91° |
| 2026-05-06 17:30 | 19.21524 | 72.68964 | 11639 ft | 277 kts | 91° |
| 2026-05-06 17:30 | 19.21519 | 72.70997 | 11607 ft | 276 kts | 91° |
| 2026-05-06 17:31 | 19.21511 | 72.73004 | 11562 ft | 276 kts | 91° |
| 2026-05-06 17:31 | 19.21501 | 72.75043 | 11357 ft | 277 kts | 91° |
| 2026-05-06 17:31 | 19.21489 | 72.77081 | 10922 ft | 278 kts | 91° |
| 2026-05-06 17:31 | 19.21477 | 72.79130 | 10477 ft | 279 kts | 91° |
| 2026-05-06 17:32 | 19.21465 | 72.81187 | 10044 ft | 281 kts | 91° |
| 2026-05-06 17:32 | 19.21451 | 72.83255 | 9602 ft | 281 kts | 91° |
| 2026-05-06 17:32 | 19.21438 | 72.85332 | 9118 ft | 282 kts | 91° |
| 2026-05-06 17:32 | 19.21424 | 72.87407 | 8710 ft | 280 kts | 91° |
| 2026-05-06 17:33 | 19.21410 | 72.89454 | 8366 ft | 276 kts | 91° |
| 2026-05-06 17:33 | 19.21396 | 72.91467 | 8030 ft | 272 kts | 92° |
| 2026-05-06 17:33 | 19.21382 | 72.93457 | 7700 ft | 268 kts | 91° |
| 2026-05-06 17:33 | 19.21368 | 72.95395 | 7376 ft | 265 kts | 91° |
| 2026-05-06 17:34 | 19.21353 | 72.97331 | 7067 ft | 261 kts | 90° |
| 2026-05-06 17:34 | 19.21338 | 72.99240 | 6787 ft | 257 kts | 90° |
| 2026-05-06 17:34 | 19.21324 | 73.01108 | 6553 ft | 251 kts | 90° |
| 2026-05-06 17:34 | 19.21310 | 73.02933 | 6319 ft | 245 kts | 90° |
| 2026-05-06 17:35 | 19.21296 | 73.04716 | 6093 ft | 239 kts | 90° |
| 2026-05-06 17:35 | 19.21282 | 73.06458 | 5870 ft | 233 kts | 90° |
| 2026-05-06 17:35 | 19.21268 | 73.08139 | 5655 ft | 225 kts | 89° |
| 2026-05-06 17:36 | 19.21208 | 73.11360 | 5173 ft | 213 kts | 95° |
| 2026-05-06 17:36 | 19.20779 | 73.12833 | 4966 ft | 209 kts | 118° |
| 2026-05-06 17:36 | 19.19792 | 73.13927 | 4727 ft | 208 kts | 150° |
| 2026-05-06 17:36 | 19.18404 | 73.14246 | 4477 ft | 207 kts | 190° |
| 2026-05-06 17:37 | 19.17137 | 73.13601 | 4270 ft | 202 kts | 220° |
| 2026-05-06 17:37 | 19.16058 | 73.12664 | 4202 ft | 204 kts | 222° |
| 2026-05-06 17:37 | 19.14965 | 73.11698 | 4139 ft | 204 kts | 221° |
| 2026-05-06 17:37 | 19.13860 | 73.10749 | 4102 ft | 204 kts | 220° |
| 2026-05-06 17:38 | 19.12746 | 73.09811 | 4043 ft | 205 kts | 220° |
| 2026-05-06 17:38 | 19.11627 | 73.08879 | 3906 ft | 204 kts | 220° |
| 2026-05-06 17:38 | 19.10507 | 73.07954 | 3662 ft | 204 kts | 219° |
| 2026-05-06 17:38 | 19.09504 | 73.06914 | 3364 ft | 201 kts | 240° |
| 2026-05-06 17:39 | 19.09081 | 73.05555 | 3217 ft | 197 kts | 268° |
| 2026-05-06 17:39 | 19.09106 | 73.04121 | 2971 ft | 195 kts | 275° |
| 2026-05-06 17:39 | 19.09112 | 73.02687 | 2713 ft | 194 kts | 270° |
| 2026-05-06 17:39 | 19.09070 | 73.01285 | 2458 ft | 186 kts | 271° |
| 2026-05-06 17:40 | 19.09052 | 72.99957 | 2229 ft | 176 kts | 271° |
| 2026-05-06 17:40 | 19.09037 | 72.98687 | 2004 ft | 171 kts | 271° |
| 2026-05-06 17:40 | 19.09019 | 72.97439 | 1785 ft | 169 kts | 271° |
| 2026-05-06 17:40 | 19.09002 | 72.96202 | 1570 ft | 168 kts | 271° |
| 2026-05-06 17:41 | 19.08985 | 72.94977 | 1358 ft | 165 kts | 271° |
| 2026-05-06 17:41 | 19.08967 | 72.93809 | 1140 ft | 152 kts | 271° |
| 2026-05-06 17:41 | 19.08953 | 72.92735 | 966 ft | 144 kts | 271° |
| 2026-05-06 17:41 | 19.08939 | 72.91680 | 789 ft | 143 kts | 272° |
| 2026-05-06 17:42 | 19.08916 | 72.90640 | 578 ft | 141 kts | 271° |
| 2026-05-06 17:42 | 19.08914 | 72.89594 | 427 ft | 144 kts | 270° |
| 2026-05-06 17:42 | 19.08894 | 72.88536 | 263 ft | 145 kts | 270° |
| 2026-05-06 17:42 | 19.08876 | 72.87496 | 86 ft | 138 kts | 270° |
| 2026-05-06 17:43 | 19.08868 | 72.86568 | 49 ft | 103 kts | 269° |
| 2026-05-06 17:43 | 19.08860 | 72.86024 | 53 ft | 45 kts | 269° |
| 2026-05-06 17:43 | 19.08858 | 72.85831 | 54 ft | 22 kts | 269° |
| 2026-05-06 17:43 | 19.08879 | 72.85668 | 50 ft | 23 kts | 288° |
| 2026-05-06 17:44 | 19.08916 | 72.85570 | 48 ft | 21 kts | 292° |
| 2026-05-06 17:44 | 19.08995 | 72.85481 | 49 ft | 9 kts | 17° |
| 2026-05-06 17:44 | 19.09023 | 72.85535 | 50 ft | 10 kts | 84° |
| 2026-05-06 17:44 | 19.09028 | 72.85620 | 55 ft | 13 kts | 88° |
| 2026-05-06 17:45 | 19.09030 | 72.85722 | 55 ft | 14 kts | 90° |
| 2026-05-06 17:45 | 19.09030 | 72.85836 | 55 ft | 17 kts | 90° |
| 2026-05-06 17:45 | 19.09032 | 72.85973 | 54 ft | 20 kts | 89° |
| 2026-05-06 17:45 | 19.09034 | 72.86074 | 54 ft | 22 kts | 89° |
| 2026-05-06 17:46 | 19.09036 | 72.86244 | 54 ft | 24 kts | 90° |
| 2026-05-06 17:46 | 19.09095 | 72.86377 | 47 ft | 21 kts | 47° |
| 2026-05-06 17:46 | 19.09231 | 72.86542 | 47 ft | 23 kts | 49° |
| 2026-05-06 17:46 | 19.09306 | 72.86630 | 47 ft | 25 kts | 48° |
| 2026-05-06 17:47 | 19.09408 | 72.86755 | 47 ft | 18 kts | 53° |
| 2026-05-06 17:47 | 19.09422 | 72.86874 | 50 ft | 15 kts | 63° |
| 2026-05-06 17:47 | 19.09463 | 72.86929 | 49 ft | 9 kts | 50° |
| 2026-05-06 17:47 | 19.09469 | 72.86968 | 49 ft | 5 kts | 114° |
| 2026-05-06 17:48 | 19.09445 | 72.87005 | 49 ft | 4 kts | 128° |
| 2026-05-06 17:48 | 19.09440 | 72.87012 | 51 ft | 0 kts | 128° |
| 2026-05-06 17:48 | 19.09437 | 72.87016 | 51 ft | 0 kts | 127° |
| 2026-05-06 17:48 | 19.09433 | 72.87022 | 49 ft | 0 kts | 127° |